Craters of the Moon National, Idaho
Current Conditions -  °F | °C
As of 5:35 AM on Monday 20 Oct 2014 (Local Time) from KSUN Reporting Station
Clear Clear  
Wind Chill: 35°   Ceiling: Unl
Heat Index: 41°   Visibility: 10mi
Dew Point: 30°   Wind: 9mph
Humidity: 65%   Direction: 320°NW
Pressure: 30.07"   Gusts: NA
Location:  43.4953°N, 113.317°W
Report Text: KSUN 201135Z AUTO 32008KT 10SM CLR 05/M01 A3007 RMK AO2
Loading
Personal Weather Stations






























Interactive Weather Map
Tropical Storm Tracking
New forecast layout! Learn more

10-Day Weather Forecast

Advertisements
Track Severe Weather on mobile